createdAt,value
2023-01-25T00:01:37.935Z,4.67
2023-01-25T00:04:05.334Z,4.70
2023-01-25T00:06:32.622Z,4.70
2023-01-25T00:08:59.983Z,4.69
2023-01-25T00:11:27.198Z,4.69
2023-01-25T00:13:56.388Z,4.64
2023-01-25T00:16:24.696Z,4.66
2023-01-25T00:18:51.985Z,4.63
2023-01-25T00:21:23.367Z,4.59
2023-01-25T00:23:51.611Z,4.61
2023-01-25T00:26:19.471Z,4.65
2023-01-25T00:28:55.429Z,4.68
2023-01-25T00:31:57.999Z,4.65
2023-01-25T00:34:25.188Z,4.68
2023-01-25T00:37:13.081Z,4.65
2023-01-25T00:39:41.798Z,4.59
2023-01-25T00:42:13.115Z,4.62
2023-01-25T00:44:40.764Z,4.55
2023-01-25T00:47:12.118Z,4.54
2023-01-25T00:49:42.180Z,4.53
2023-01-25T00:52:10.350Z,4.53
2023-01-25T00:54:37.724Z,4.51
2023-01-25T00:57:05.736Z,4.53
2023-01-25T00:59:34.368Z,4.54
2023-01-25T01:02:02.817Z,4.55
2023-01-25T01:04:31.154Z,4.54
2023-01-25T01:06:58.629Z,4.55
2023-01-25T01:09:26.096Z,4.58
2023-01-25T01:11:54.244Z,4.59
2023-01-25T01:14:23.861Z,4.60
2023-01-25T01:16:51.322Z,4.62
2023-01-25T01:19:19.660Z,4.73
2023-01-25T01:21:47.585Z,4.76
2023-01-25T01:24:15.072Z,4.79
2023-01-25T01:26:42.457Z,4.78
2023-01-25T01:29:09.686Z,4.73
2023-01-25T01:31:37.434Z,4.76
2023-01-25T01:34:17.035Z,4.73
2023-01-25T01:36:45.159Z,4.71
2023-01-25T01:39:12.492Z,4.66
2023-01-25T01:41:40.014Z,4.62
2023-01-25T01:44:22.671Z,4.66
2023-01-25T01:46:59.655Z,4.53
2023-01-25T01:49:33.480Z,4.46
2023-01-25T01:52:18.323Z,4.47
2023-01-25T01:55:02.808Z,4.53
2023-01-25T01:57:48.531Z,4.57
2023-01-25T02:00:36.725Z,4.54
2023-01-25T02:03:04.118Z,4.56
2023-01-25T02:05:56.032Z,4.58
2023-01-25T02:08:25.425Z,4.58
2023-01-25T02:10:52.961Z,4.61
2023-01-25T02:13:21.573Z,4.60
2023-01-25T02:15:52.284Z,4.66
2023-01-25T02:18:20.454Z,4.63
2023-01-25T02:20:52.838Z,4.64
2023-01-25T02:24:08.176Z,4.61
2023-01-25T02:26:40.112Z,4.61
2023-01-25T02:29:09.820Z,4.61
2023-01-25T02:31:37.300Z,4.63
2023-01-25T02:34:04.722Z,4.60
2023-01-25T02:36:35.161Z,4.62
2023-01-25T02:39:20.253Z,4.64
2023-01-25T02:41:48.605Z,4.64
2023-01-25T02:44:26.818Z,4.64
2023-01-25T02:46:54.806Z,4.56
2023-01-25T02:49:24.007Z,4.55
2023-01-25T02:51:58.390Z,4.59
2023-01-25T02:54:27.026Z,4.60
2023-01-25T02:56:55.361Z,4.61
2023-01-25T02:59:25.033Z,4.62
2023-01-25T03:01:57.593Z,4.65
2023-01-25T03:04:26.057Z,4.68
2023-01-25T03:06:53.442Z,4.66
2023-01-25T03:09:20.780Z,4.63
2023-01-25T03:11:50.204Z,4.55
2023-01-25T03:14:19.788Z,4.47
2023-01-25T03:16:47.111Z,4.48
2023-01-25T03:19:15.892Z,4.46
2023-01-25T03:21:46.683Z,4.47
2023-01-25T03:24:14.578Z,4.43
2023-01-25T03:27:05.286Z,4.44
2023-01-25T03:29:44.397Z,4.41
2023-01-25T03:32:16.487Z,4.44
2023-01-25T03:34:43.833Z,4.41
2023-01-25T03:37:11.336Z,4.40
2023-01-25T03:39:41.191Z,4.39
2023-01-25T03:42:09.135Z,4.36
2023-01-25T03:44:36.793Z,4.35
2023-01-25T03:47:05.130Z,4.46
2023-01-25T03:49:33.468Z,4.47
2023-01-25T03:52:01.695Z,4.35
2023-01-25T03:54:41.245Z,4.34
2023-01-25T03:57:09.786Z,4.36
2023-01-25T04:00:12.822Z,4.37
2023-01-25T04:02:45.252Z,4.40
2023-01-25T04:05:17.054Z,4.34
2023-01-25T04:07:47.442Z,4.28
2023-01-25T04:10:17.007Z,4.40
2023-01-25T04:12:46.802Z,4.39
2023-01-25T04:15:14.207Z,4.43
2023-01-25T04:17:41.760Z,4.45
2023-01-25T04:20:16.678Z,4.38
2023-01-25T04:22:44.779Z,4.43
2023-01-25T04:25:12.311Z,4.39
2023-01-25T04:27:44.983Z,4.20
2023-01-25T04:30:16.064Z,4.11
2023-01-25T04:32:45.484Z,4.09
2023-01-25T04:35:23.629Z,4.08
2023-01-25T04:37:59.692Z,4.07
2023-01-25T04:40:34.332Z,4.08
2023-01-25T04:43:02.315Z,4.09
2023-01-25T04:45:31.098Z,4.09
2023-01-25T04:48:06.168Z,4.11
2023-01-25T04:50:34.621Z,4.16
2023-01-25T04:53:02.449Z,4.17
2023-01-25T04:55:33.419Z,4.16
2023-01-25T04:58:02.978Z,4.20
2023-01-25T05:00:31.556Z,4.27
2023-01-25T05:03:00.879Z,4.28
2023-01-25T05:05:28.288Z,4.27
2023-01-25T05:07:58.699Z,4.29
2023-01-25T05:10:25.927Z,4.26
2023-01-25T05:13:25.843Z,4.21
2023-01-25T05:16:03.099Z,4.20
2023-01-25T05:18:42.560Z,4.22
2023-01-25T05:21:35.639Z,4.24
2023-01-25T05:24:03.278Z,4.28
2023-01-25T05:26:51.601Z,4.27
2023-01-25T05:29:19.000Z,4.27
2023-01-25T05:31:52.620Z,4.31
2023-01-25T05:34:20.023Z,4.30
2023-01-25T05:36:47.697Z,4.34
2023-01-25T05:39:14.989Z,4.32
2023-01-25T05:41:44.934Z,4.38
2023-01-25T05:44:12.629Z,4.37
2023-01-25T05:46:43.833Z,4.40
2023-01-25T05:49:11.733Z,4.46
2023-01-25T05:51:40.495Z,4.47
2023-01-25T05:54:13.142Z,4.45
2023-01-25T05:56:43.869Z,4.44
2023-01-25T05:59:12.361Z,4.41
2023-01-25T06:01:39.925Z,4.41
2023-01-25T06:04:08.144Z,4.30
2023-01-25T06:06:35.832Z,4.26
2023-01-25T06:09:04.283Z,4.22
2023-01-25T06:11:31.800Z,4.16
2023-01-25T06:13:59.159Z,4.21
2023-01-25T06:16:27.602Z,4.18
2023-01-25T06:19:27.721Z,4.11
2023-01-25T06:22:20.992Z,4.08
2023-01-25T06:24:48.187Z,4.08
2023-01-25T06:27:15.570Z,4.11
2023-01-25T06:29:43.617Z,4.11
2023-01-25T06:32:10.886Z,4.09
2023-01-25T06:34:38.144Z,4.06
2023-01-25T06:37:09.223Z,4.08
2023-01-25T06:39:36.378Z,4.07
2023-01-25T06:42:03.763Z,4.10
2023-01-25T06:44:31.623Z,4.14
2023-01-25T06:46:59.022Z,4.15
2023-01-25T06:49:26.361Z,4.13
2023-01-25T06:51:53.575Z,4.10
2023-01-25T06:54:21.056Z,4.05
2023-01-25T06:56:48.345Z,4.07
2023-01-25T06:59:16.198Z,4.08
2023-01-25T07:01:43.578Z,4.05
2023-01-25T07:04:12.196Z,4.04
2023-01-25T07:06:40.692Z,3.95
2023-01-25T07:09:12.944Z,3.94
2023-01-25T07:11:40.138Z,3.91
2023-01-25T07:14:07.828Z,3.92
2023-01-25T07:16:38.573Z,3.90
2023-01-25T07:19:09.580Z,3.90
2023-01-25T07:21:37.005Z,3.90
2023-01-25T07:24:06.068Z,3.88
2023-01-25T07:26:33.546Z,3.85
2023-01-25T07:29:00.954Z,3.82
2023-01-25T07:31:29.187Z,3.78
2023-01-25T07:33:58.378Z,3.78
2023-01-25T07:36:26.622Z,3.76
2023-01-25T07:38:56.469Z,3.73
2023-01-25T07:41:25.834Z,3.73
2023-01-25T07:43:53.243Z,3.74
2023-01-25T07:46:49.467Z,3.68
2023-01-25T07:49:16.761Z,3.71
2023-01-25T07:51:44.154Z,3.69
2023-01-25T07:54:14.685Z,3.77
2023-01-25T07:56:42.107Z,3.79
2023-01-25T07:59:10.891Z,3.71
2023-01-25T08:01:42.046Z,3.71
2023-01-25T08:04:12.029Z,3.70
2023-01-25T08:06:39.737Z,3.67
2023-01-25T08:09:17.302Z,3.67
2023-01-25T08:11:44.783Z,3.68
2023-01-25T08:14:12.615Z,3.66
2023-01-25T08:16:42.008Z,3.66
2023-01-25T08:19:11.641Z,3.68
2023-01-25T08:21:42.325Z,3.67
2023-01-25T08:24:10.346Z,3.69
2023-01-25T08:26:40.744Z,3.70
2023-01-25T08:29:07.955Z,3.73
2023-01-25T08:31:36.749Z,3.75
2023-01-25T08:34:04.403Z,3.80
2023-01-25T08:36:31.873Z,3.90
2023-01-25T08:39:03.821Z,4.01
2023-01-25T08:41:34.136Z,4.02
2023-01-25T08:46:46.253Z,4.14
2023-01-25T08:49:13.891Z,4.12
2023-01-25T08:51:41.189Z,4.21
2023-01-25T08:54:12.923Z,4.28
2023-01-25T08:56:41.588Z,4.27
2023-01-25T08:59:14.916Z,4.24
2023-01-25T09:01:42.360Z,4.28
2023-01-25T09:04:09.672Z,4.39
2023-01-25T09:06:37.347Z,4.47
2023-01-25T09:09:05.170Z,4.60
2023-01-25T09:11:36.965Z,4.70
2023-01-25T09:14:05.411Z,4.79
2023-01-25T09:16:32.736Z,4.93
2023-01-25T09:19:03.961Z,5.11
2023-01-25T09:21:32.243Z,5.19
2023-01-25T09:24:08.167Z,5.31
2023-01-25T09:26:42.968Z,5.59
2023-01-25T09:29:12.196Z,5.75
2023-01-25T09:31:41.516Z,5.93
2023-01-25T09:34:15.544Z,6.01
2023-01-25T09:36:43.090Z,6.04
2023-01-25T09:39:14.851Z,5.95
2023-01-25T09:42:14.645Z,5.86
2023-01-25T09:45:17.812Z,5.68
2023-01-25T09:48:14.491Z,5.61
2023-01-25T09:51:02.661Z,5.52
2023-01-25T09:53:49.246Z,5.57
2023-01-25T09:56:36.079Z,5.55
2023-01-25T09:59:17.732Z,5.57
2023-01-25T10:02:45.458Z,5.57
2023-01-25T10:05:25.896Z,5.65
2023-01-25T10:08:29.715Z,5.80
2023-01-25T10:11:22.504Z,6.00
2023-01-25T10:13:50.166Z,6.24
2023-01-25T10:16:33.266Z,6.40
2023-01-25T10:19:58.851Z,6.67
2023-01-25T10:22:35.401Z,6.83
2023-01-25T10:26:02.061Z,7.26
2023-01-25T10:28:50.239Z,7.40
2023-01-25T10:31:44.170Z,6.56
2023-01-25T10:34:55.935Z,7.19
2023-01-25T10:37:32.926Z,6.85
2023-01-25T10:40:24.363Z,6.77
2023-01-25T10:43:02.927Z,7.08
2023-01-25T10:45:30.255Z,7.07
2023-01-25T10:48:07.937Z,6.83
2023-01-25T10:50:46.898Z,6.38
2023-01-25T10:53:36.095Z,6.19
2023-01-25T10:56:09.745Z,6.32
2023-01-25T10:59:16.506Z,6.33
2023-01-25T11:01:43.946Z,6.35
2023-01-25T11:04:35.401Z,6.40
2023-01-25T11:07:05.911Z,6.64
2023-01-25T11:09:39.485Z,6.66
2023-01-25T11:12:18.360Z,6.83
2023-01-25T11:14:50.682Z,7.16
2023-01-25T11:17:31.688Z,7.70
2023-01-25T11:20:19.787Z,7.74
2023-01-25T11:22:54.535Z,7.27
2023-01-25T11:25:28.943Z,6.76
2023-01-25T11:28:24.013Z,6.69
2023-01-25T11:30:53.831Z,6.69
2023-01-25T11:33:22.872Z,6.96
2023-01-25T11:36:21.048Z,7.03
2023-01-25T11:39:47.939Z,7.08
2023-01-25T11:43:05.900Z,7.21
2023-01-25T11:45:48.651Z,7.23
2023-01-25T11:48:48.767Z,7.16
2023-01-25T11:52:16.453Z,7.24
2023-01-25T11:55:14.058Z,7.28
2023-01-25T11:58:26.773Z,7.12
2023-01-25T12:01:33.817Z,7.31
2023-01-25T12:04:57.701Z,7.32
2023-01-25T12:07:42.428Z,7.19
2023-01-25T12:11:03.815Z,7.13
2023-01-25T12:14:06.972Z,7.53
2023-01-25T12:17:21.372Z,7.47
2023-01-25T12:20:31.595Z,7.84
2023-01-25T12:23:41.006Z,8.00
2023-01-25T12:27:08.620Z,8.16
2023-01-25T12:30:32.071Z,8.17
2023-01-25T12:33:27.718Z,8.12
2023-01-25T12:36:29.420Z,7.99
2023-01-25T12:39:18.026Z,8.01
2023-01-25T12:42:12.211Z,8.28
2023-01-25T12:44:57.335Z,8.36
2023-01-25T12:48:04.616Z,8.37
2023-01-25T12:50:47.055Z,8.14
2023-01-25T12:53:37.457Z,7.74
2023-01-25T12:56:27.664Z,7.91
2023-01-25T12:59:26.525Z,8.12
2023-01-25T13:02:44.639Z,8.19
2023-01-25T13:05:50.797Z,8.04
2023-01-25T13:09:01.659Z,7.52
2023-01-25T13:11:42.030Z,7.84
2023-01-25T13:14:18.632Z,8.31
2023-01-25T13:16:53.944Z,8.07
2023-01-25T13:19:32.137Z,8.63
2023-01-25T13:22:00.647Z,8.95
2023-01-25T13:24:31.274Z,9.07
2023-01-25T13:27:24.844Z,8.86
2023-01-25T13:30:16.318Z,8.70
2023-01-25T13:32:49.713Z,7.67
2023-01-25T13:35:30.553Z,7.62
2023-01-25T13:38:24.509Z,7.67
2023-01-25T13:41:16.679Z,7.74
2023-01-25T13:44:21.313Z,7.83
2023-01-25T13:46:48.622Z,8.43
2023-01-25T13:49:25.049Z,8.67
2023-01-25T13:51:52.545Z,7.68
2023-01-25T13:54:19.796Z,7.71
2023-01-25T13:56:47.105Z,7.90
2023-01-25T13:59:28.353Z,8.32
2023-01-25T14:01:57.663Z,8.41
2023-01-25T14:04:25.408Z,8.42
2023-01-25T14:07:00.660Z,8.29
2023-01-25T14:09:29.498Z,8.33
2023-01-25T14:12:01.265Z,8.50
2023-01-25T14:14:35.831Z,7.90
2023-01-25T14:17:15.403Z,8.08
2023-01-25T14:19:54.524Z,7.90
2023-01-25T14:22:36.960Z,7.78
2023-01-25T14:25:18.315Z,7.87
2023-01-25T14:28:02.404Z,8.31
2023-01-25T14:30:34.408Z,8.24
2023-01-25T14:33:22.411Z,7.88
2023-01-25T14:35:59.999Z,8.06
2023-01-25T14:38:42.173Z,8.10
2023-01-25T14:42:00.202Z,8.32
2023-01-25T14:44:29.714Z,8.27
2023-01-25T14:47:30.896Z,8.22
2023-01-25T14:50:38.935Z,7.88
2023-01-25T14:53:23.537Z,7.98
2023-01-25T14:55:52.152Z,7.92
2023-01-25T14:58:30.257Z,7.85
2023-01-25T15:01:03.206Z,7.89
2023-01-25T15:03:31.699Z,7.78
2023-01-25T15:06:04.636Z,7.43
2023-01-25T15:08:40.562Z,7.44
2023-01-25T15:12:00.524Z,7.50
2023-01-25T15:14:27.791Z,7.11
2023-01-25T15:16:57.091Z,7.08
2023-01-25T15:19:31.397Z,7.08
2023-01-25T15:22:01.053Z,7.08
2023-01-25T15:24:32.811Z,7.01
2023-01-25T15:27:00.066Z,6.98
2023-01-25T15:29:27.397Z,6.91
2023-01-25T15:31:56.452Z,6.83
2023-01-25T15:34:32.483Z,6.79
2023-01-25T15:36:59.997Z,6.78
2023-01-25T15:39:27.703Z,6.73
2023-01-25T15:41:55.025Z,6.67
2023-01-25T15:44:24.916Z,6.57
2023-01-25T15:46:53.503Z,6.45
2023-01-25T15:49:28.675Z,6.44
2023-01-25T15:51:56.940Z,6.35
2023-01-25T15:54:24.543Z,6.20
2023-01-25T15:56:58.142Z,6.08
2023-01-25T15:59:27.100Z,5.95
2023-01-25T16:01:54.462Z,5.96
2023-01-25T16:04:21.890Z,5.85
2023-01-25T16:06:54.790Z,5.74
2023-01-25T16:09:29.879Z,5.65
2023-01-25T16:12:01.492Z,5.54
2023-01-25T16:14:31.270Z,5.43
2023-01-25T16:17:04.043Z,5.33
2023-01-25T16:19:33.125Z,5.23
2023-01-25T16:22:00.655Z,5.18
2023-01-25T16:24:28.136Z,5.10
2023-01-25T16:26:59.527Z,5.05
2023-01-25T16:29:27.546Z,5.00
2023-01-25T16:31:56.348Z,4.88
2023-01-25T16:34:24.730Z,4.77
2023-01-25T16:36:52.862Z,4.73
2023-01-25T16:39:25.379Z,4.67
2023-01-25T16:41:53.549Z,4.60
2023-01-25T16:44:20.840Z,4.54
2023-01-25T16:46:50.182Z,4.44
2023-01-25T16:49:23.046Z,4.37
2023-01-25T16:51:50.768Z,4.31
2023-01-25T16:54:20.610Z,4.24
2023-01-25T16:56:49.428Z,4.21
2023-01-25T16:59:18.209Z,4.17
2023-01-25T17:01:46.078Z,4.11
2023-01-25T17:04:14.180Z,4.09
2023-01-25T17:06:49.965Z,4.08
2023-01-25T17:09:24.178Z,3.99
2023-01-25T17:11:53.976Z,3.95
2023-01-25T17:14:23.013Z,3.93
2023-01-25T17:16:55.004Z,3.94
2023-01-25T17:19:23.474Z,3.89
2023-01-25T17:21:50.883Z,3.87
2023-01-25T17:24:21.777Z,3.83
2023-01-25T17:26:49.506Z,3.84
2023-01-25T17:29:16.993Z,3.80
2023-01-25T17:31:44.473Z,3.72
2023-01-25T17:34:16.222Z,3.70
2023-01-25T17:36:45.549Z,3.67
2023-01-25T17:39:15.642Z,3.65
2023-01-25T17:41:45.705Z,3.62
2023-01-25T17:44:17.112Z,3.59
2023-01-25T17:46:44.374Z,3.53
2023-01-25T17:49:14.692Z,3.49
2023-01-25T17:51:42.027Z,3.42
2023-01-25T17:54:11.491Z,3.33
2023-01-25T17:56:39.845Z,3.26
2023-01-25T17:59:09.390Z,3.23
2023-01-25T18:01:37.601Z,3.20
2023-01-25T18:04:08.769Z,3.14
2023-01-25T18:06:36.713Z,3.07
2023-01-25T18:09:08.703Z,3.10
2023-01-25T18:11:39.898Z,3.09
2023-01-25T18:14:15.257Z,3.06
2023-01-25T18:16:43.145Z,3.05
2023-01-25T18:19:11.548Z,3.05
2023-01-25T18:21:41.992Z,3.06
2023-01-25T18:24:31.873Z,3.13
2023-01-25T18:27:18.294Z,3.20
2023-01-25T18:30:31.564Z,3.15
2023-01-25T18:32:59.459Z,3.06
2023-01-25T18:35:26.708Z,3.02
2023-01-25T18:37:54.109Z,2.97
2023-01-25T18:40:21.696Z,2.88
2023-01-25T18:42:49.584Z,2.88
2023-01-25T18:45:17.845Z,2.93
2023-01-25T18:47:45.187Z,2.93
2023-01-25T18:50:16.176Z,2.91
2023-01-25T18:52:44.235Z,2.87
2023-01-25T18:55:12.556Z,2.81
2023-01-25T18:57:39.914Z,2.85
2023-01-25T19:00:10.978Z,2.88
2023-01-25T19:02:38.342Z,2.97
2023-01-25T19:05:06.381Z,3.02
2023-01-25T19:07:33.620Z,3.12
2023-01-25T19:10:00.843Z,3.13
2023-01-25T19:12:28.284Z,3.13
2023-01-25T19:14:55.501Z,3.21
2023-01-25T19:17:22.794Z,3.21
2023-01-25T19:19:52.340Z,3.24
2023-01-25T19:22:19.582Z,3.24
2023-01-25T19:24:46.877Z,3.22
2023-01-25T19:27:14.080Z,3.19
2023-01-25T19:29:41.375Z,3.09
2023-01-25T19:32:10.795Z,3.06
2023-01-25T19:34:38.875Z,3.02
2023-01-25T19:37:06.610Z,2.96
2023-01-25T19:39:33.891Z,2.92
2023-01-25T19:42:01.118Z,2.87
2023-01-25T19:44:28.340Z,2.81
2023-01-25T19:46:55.622Z,2.72
2023-01-25T19:49:22.974Z,2.60
2023-01-25T19:51:53.170Z,2.53
2023-01-25T19:54:21.748Z,2.45
2023-01-25T19:56:50.276Z,2.38
2023-01-25T19:59:25.351Z,2.39
2023-01-25T20:01:53.185Z,2.29
2023-01-25T20:04:23.459Z,2.30
2023-01-25T20:06:51.428Z,2.33
2023-01-25T20:09:20.416Z,2.27
2023-01-25T20:11:47.793Z,2.12
2023-01-25T20:14:15.865Z,2.12
2023-01-25T20:16:43.498Z,2.07
2023-01-25T20:19:13.734Z,2.07
2023-01-25T20:21:41.123Z,2.09
2023-01-25T20:24:10.322Z,2.07
2023-01-25T20:26:42.781Z,2.01
2023-01-25T20:29:12.468Z,1.91
2023-01-25T20:31:47.303Z,1.91
2023-01-25T20:34:20.709Z,1.91
2023-01-25T20:36:50.419Z,1.93
2023-01-25T20:39:21.907Z,1.90
2023-01-25T20:41:53.315Z,1.92
2023-01-25T20:44:21.137Z,1.86
2023-01-25T20:46:49.853Z,1.79
2023-01-25T20:49:18.458Z,1.74
2023-01-25T20:51:47.017Z,1.67
2023-01-25T20:54:15.827Z,1.61
2023-01-25T20:56:48.015Z,1.65
2023-01-25T20:59:17.584Z,1.64
2023-01-25T21:01:45.032Z,1.56
2023-01-25T21:04:12.252Z,1.51
2023-01-25T21:06:39.603Z,1.52
2023-01-25T21:09:07.048Z,1.59
2023-01-25T21:11:34.680Z,1.59
2023-01-25T21:14:02.089Z,1.68
2023-01-25T21:16:30.195Z,1.79
2023-01-25T21:19:03.845Z,1.88
2023-01-25T21:21:34.699Z,2.00
2023-01-25T21:24:02.510Z,2.07
2023-01-25T21:26:36.954Z,2.11
2023-01-25T21:29:06.889Z,2.22
2023-01-25T21:31:39.408Z,2.31
2023-01-25T21:34:07.113Z,2.40
2023-01-25T21:36:34.400Z,2.43
2023-01-25T21:39:02.100Z,2.48
2023-01-25T21:41:33.548Z,2.58
2023-01-25T21:44:21.251Z,2.61
2023-01-25T21:47:16.318Z,2.65
2023-01-25T21:49:54.978Z,2.64
2023-01-25T21:52:22.271Z,2.64
2023-01-25T21:54:49.450Z,2.67
2023-01-25T21:57:16.738Z,2.78
2023-01-25T21:59:43.978Z,2.82
2023-01-25T22:02:14.866Z,2.76
2023-01-25T22:04:42.272Z,2.72
2023-01-25T22:07:10.981Z,2.74
2023-01-25T22:09:38.173Z,2.72
2023-01-25T22:12:05.567Z,2.65
2023-01-25T22:14:32.754Z,2.60
2023-01-25T22:16:59.936Z,2.61
2023-01-25T22:19:27.591Z,2.68
2023-01-25T22:21:54.780Z,2.70
2023-01-25T22:24:22.741Z,2.69
2023-01-25T22:27:16.940Z,2.57
2023-01-25T22:29:44.234Z,2.56
2023-01-25T22:32:11.440Z,2.57
2023-01-25T22:34:38.671Z,2.59
2023-01-25T22:37:05.859Z,2.58
2023-01-25T22:39:33.099Z,2.67
2023-01-25T22:42:00.346Z,2.63
2023-01-25T22:44:27.615Z,2.63
2023-01-25T22:46:54.905Z,2.64
2023-01-25T22:49:22.148Z,2.65
2023-01-25T22:51:49.379Z,2.59
2023-01-25T22:54:16.632Z,2.61
2023-01-25T22:56:43.902Z,2.67
2023-01-25T22:59:18.503Z,2.62
2023-01-25T23:01:46.309Z,2.56
2023-01-25T23:04:13.625Z,2.66
2023-01-25T23:06:40.950Z,2.77
2023-01-25T23:09:08.290Z,2.80
2023-01-25T23:11:38.051Z,2.83
2023-01-25T23:14:29.160Z,2.83
2023-01-25T23:17:16.561Z,2.85
2023-01-25T23:19:43.899Z,2.85
2023-01-25T23:22:11.103Z,2.89
2023-01-25T23:24:38.365Z,2.93
2023-01-25T23:27:05.601Z,2.93
2023-01-25T23:29:33.201Z,2.79
2023-01-25T23:32:00.445Z,2.71
2023-01-25T23:34:27.850Z,2.56
2023-01-25T23:36:55.149Z,2.45
2023-01-25T23:39:23.601Z,2.37
2023-01-25T23:41:52.382Z,2.34
2023-01-25T23:44:19.452Z,2.31
2023-01-25T23:46:46.735Z,2.20
2023-01-25T23:49:14.205Z,2.16
2023-01-25T23:51:41.555Z,2.09
2023-01-25T23:54:08.796Z,1.99
2023-01-25T23:56:36.015Z,1.93
2023-01-25T23:59:03.252Z,1.99
